createdAt,value
2022-12-14T00:01:33.830Z,6.50
2022-12-14T00:04:02.011Z,5.50
2022-12-14T00:06:32.523Z,5.60
2022-12-14T00:09:04.481Z,6.20
2022-12-14T00:11:34.740Z,5.90
2022-12-14T00:14:04.740Z,5.50
2022-12-14T00:16:34.460Z,5.40
2022-12-14T00:21:31.796Z,6.00
2022-12-14T00:24:00.786Z,4.80
2022-12-14T00:26:32.753Z,5.50
2022-12-14T00:29:02.531Z,5.80
2022-12-14T00:31:32.321Z,5.80
2022-12-14T00:34:01.549Z,5.40
2022-12-14T00:36:31.958Z,5.50
2022-12-14T00:41:28.567Z,6.30
2022-12-14T00:43:57.168Z,6.20
2022-12-14T00:46:25.422Z,6.00
2022-12-14T00:48:54.629Z,5.80
2022-12-14T00:51:22.953Z,6.00
2022-12-14T00:53:51.192Z,6.00
2022-12-14T00:56:19.466Z,6.30
2022-12-14T00:58:52.237Z,6.50
2022-12-14T01:01:22.312Z,7.20
2022-12-14T01:03:51.160Z,6.30
2022-12-14T01:06:23.190Z,6.40
2022-12-14T01:08:51.408Z,6.50
2022-12-14T01:11:19.520Z,7.40
2022-12-14T01:13:49.307Z,9.70
2022-12-14T01:16:18.346Z,9.70
2022-12-14T01:18:46.854Z,10.40
2022-12-14T01:21:17.091Z,9.90
2022-12-14T01:23:47.665Z,8.40
2022-12-14T01:26:17.212Z,10.10
2022-12-14T01:28:46.933Z,8.40
2022-12-14T01:31:18.000Z,7.20
2022-12-14T01:33:46.779Z,7.40
2022-12-14T01:36:20.864Z,6.40
2022-12-14T01:38:54.308Z,10.30
2022-12-14T01:41:27.581Z,8.50
2022-12-14T01:44:09.525Z,11.00
2022-12-14T01:46:49.709Z,15.20
2022-12-14T01:49:23.520Z,15.60
2022-12-14T01:52:00.356Z,11.20
2022-12-14T01:54:32.265Z,5.60
2022-12-14T01:57:00.889Z,6.10
2022-12-14T01:59:33.261Z,5.60
2022-12-14T02:02:06.197Z,6.80
2022-12-14T02:04:37.906Z,7.90
2022-12-14T02:07:06.084Z,7.60
2022-12-14T02:09:39.695Z,7.20
2022-12-14T02:12:14.782Z,6.30
2022-12-14T02:14:44.608Z,7.00
2022-12-14T02:17:14.783Z,7.00
2022-12-14T02:19:47.161Z,5.90
2022-12-14T02:22:54.084Z,6.20
2022-12-14T02:25:49.322Z,6.50
2022-12-14T02:28:40.005Z,5.90
2022-12-14T02:31:24.074Z,5.70
2022-12-14T02:33:59.793Z,6.90
2022-12-14T02:36:47.168Z,6.00
2022-12-14T02:39:33.875Z,6.20
2022-12-14T02:42:15.445Z,6.80
2022-12-14T02:45:09.250Z,5.80
2022-12-14T02:48:02.071Z,5.30
2022-12-14T02:50:30.911Z,5.60
2022-12-14T02:53:40.361Z,6.10
2022-12-14T02:56:13.442Z,6.00
2022-12-14T02:58:49.002Z,6.40
2022-12-14T03:01:22.225Z,5.80
2022-12-14T03:03:51.317Z,6.90
2022-12-14T03:06:28.396Z,6.40
2022-12-14T03:09:13.742Z,6.80
2022-12-14T03:12:07.609Z,6.40
2022-12-14T03:14:46.651Z,6.60
2022-12-14T03:17:19.957Z,6.80
2022-12-14T03:19:52.030Z,7.60
2022-12-14T03:22:28.913Z,7.20
2022-12-14T03:25:03.132Z,7.80
2022-12-14T03:27:36.032Z,7.50
2022-12-14T03:30:31.684Z,7.70
2022-12-14T03:33:12.605Z,7.40
2022-12-14T03:35:55.128Z,6.60
2022-12-14T03:38:34.041Z,8.10
2022-12-14T03:41:11.111Z,7.30
2022-12-14T03:43:49.928Z,7.00
2022-12-14T03:47:13.856Z,7.50
2022-12-14T03:50:04.016Z,7.00
2022-12-14T03:55:26.002Z,6.90
2022-12-14T03:58:18.290Z,7.20
2022-12-14T04:00:55.492Z,6.80
2022-12-14T04:03:38.689Z,7.30
2022-12-14T04:06:14.759Z,6.50
2022-12-14T04:08:50.927Z,4.80
2022-12-14T04:11:40.458Z,6.80
2022-12-14T04:14:34.451Z,7.90
2022-12-14T04:17:28.307Z,8.00
2022-12-14T04:20:03.375Z,8.10
2022-12-14T04:22:38.304Z,7.50
2022-12-14T04:25:31.816Z,7.70
2022-12-14T04:28:33.844Z,7.80
2022-12-14T04:31:08.149Z,7.30
2022-12-14T04:33:49.160Z,7.70
2022-12-14T04:36:24.848Z,8.40
2022-12-14T04:39:00.608Z,8.00
2022-12-14T04:41:36.665Z,8.80
2022-12-14T04:44:14.271Z,8.40
2022-12-14T04:46:44.591Z,8.30
2022-12-14T04:49:26.125Z,8.30
2022-12-14T04:52:15.857Z,8.80
2022-12-14T04:54:53.680Z,7.70
2022-12-14T04:57:31.834Z,8.50
2022-12-14T05:00:01.825Z,8.60
2022-12-14T05:05:19.495Z,8.10
2022-12-14T05:07:54.345Z,8.30
2022-12-14T05:10:34.916Z,8.90
2022-12-14T05:13:10.660Z,8.20
2022-12-14T05:15:58.008Z,8.40
2022-12-14T05:18:26.489Z,7.90
2022-12-14T05:20:54.741Z,8.70
2022-12-14T05:23:22.926Z,9.80
2022-12-14T05:25:51.402Z,8.90
2022-12-14T05:28:19.637Z,12.90
2022-12-14T05:30:48.885Z,17.70
2022-12-14T05:33:20.147Z,13.10
2022-12-14T05:35:48.577Z,14.10
2022-12-14T05:38:16.809Z,14.40
2022-12-14T05:40:45.067Z,16.00
2022-12-14T05:43:13.592Z,11.60
2022-12-14T05:45:41.967Z,10.50
2022-12-14T05:48:11.484Z,8.80
2022-12-14T05:50:39.638Z,9.10
2022-12-14T05:53:08.476Z,9.60
2022-12-14T05:55:36.769Z,6.10
2022-12-14T05:58:04.831Z,6.90
2022-12-14T06:00:32.989Z,8.90
2022-12-14T06:03:01.208Z,13.00
2022-12-14T06:05:29.338Z,9.40
2022-12-14T06:07:57.514Z,11.30
2022-12-14T06:10:25.685Z,9.50
2022-12-14T06:12:53.775Z,12.00
2022-12-14T06:15:21.951Z,10.90
2022-12-14T06:17:50.548Z,14.40
2022-12-14T06:20:18.643Z,12.40
2022-12-14T06:22:47.875Z,10.50
2022-12-14T06:25:16.265Z,11.40
2022-12-14T06:27:44.364Z,12.40
2022-12-14T06:30:12.954Z,8.80
2022-12-14T06:32:41.111Z,8.50
2022-12-14T06:35:09.526Z,8.20
2022-12-14T06:37:37.695Z,7.90
2022-12-14T06:40:06.966Z,7.70
2022-12-14T06:42:35.039Z,7.60
2022-12-14T06:45:03.681Z,7.10
2022-12-14T06:47:31.943Z,8.10
2022-12-14T06:50:00.029Z,7.80
2022-12-14T06:52:28.186Z,8.50
2022-12-14T06:54:56.440Z,6.80
2022-12-14T06:57:24.581Z,7.40
2022-12-14T06:59:52.745Z,7.20
2022-12-14T07:02:21.192Z,7.60
2022-12-14T07:04:49.557Z,6.70
2022-12-14T07:07:17.733Z,7.90
2022-12-14T07:09:45.896Z,7.30
2022-12-14T07:12:14.218Z,8.80
2022-12-14T07:14:42.376Z,8.50
2022-12-14T07:17:10.534Z,9.70
2022-12-14T07:19:38.672Z,11.10
2022-12-14T07:22:06.893Z,6.70
2022-12-14T07:24:35.066Z,8.00
2022-12-14T07:27:03.515Z,7.50
2022-12-14T07:29:34.847Z,8.10
2022-12-14T07:32:04.197Z,7.40
2022-12-14T07:34:33.034Z,7.40
2022-12-14T07:37:01.158Z,7.50
2022-12-14T07:39:29.436Z,7.70
2022-12-14T07:41:57.600Z,7.60
2022-12-14T07:44:25.679Z,9.20
2022-12-14T07:46:54.165Z,8.40
2022-12-14T07:49:22.744Z,8.50
2022-12-14T07:51:53.126Z,7.90
2022-12-14T07:54:21.686Z,7.20
2022-12-14T07:56:51.141Z,7.90
2022-12-14T07:59:19.445Z,7.20
2022-12-14T08:01:47.927Z,7.30
2022-12-14T08:04:18.798Z,7.70
2022-12-14T08:06:48.402Z,7.20
2022-12-14T08:09:17.734Z,5.80
2022-12-14T08:11:46.558Z,8.00
2022-12-14T08:14:17.629Z,8.00
2022-12-14T08:16:47.277Z,7.90
2022-12-14T08:19:15.923Z,8.60
2022-12-14T08:21:45.817Z,9.10
2022-12-14T08:24:14.962Z,8.60
2022-12-14T08:26:43.092Z,10.20
2022-12-14T08:29:18.265Z,9.90
2022-12-14T08:31:46.460Z,12.40
2022-12-14T08:34:17.010Z,15.10
2022-12-14T08:36:45.245Z,12.30
2022-12-14T08:39:13.624Z,12.90
2022-12-14T08:41:41.994Z,10.80
2022-12-14T08:44:11.160Z,10.50
2022-12-14T08:46:39.448Z,9.60
2022-12-14T08:49:07.655Z,9.50
2022-12-14T08:51:40.501Z,9.50
2022-12-14T08:54:08.637Z,9.00
2022-12-14T08:56:37.909Z,11.80
2022-12-14T08:59:06.570Z,10.50
2022-12-14T09:01:35.086Z,11.30
2022-12-14T09:04:06.504Z,11.50
2022-12-14T09:06:37.140Z,10.90
2022-12-14T09:09:13.664Z,15.70
2022-12-14T09:11:45.617Z,10.90
2022-12-14T09:14:14.029Z,8.70
2022-12-14T09:16:42.349Z,9.30
2022-12-14T09:19:12.553Z,9.00
2022-12-14T09:24:09.825Z,10.80
2022-12-14T09:26:38.028Z,12.10
2022-12-14T09:29:06.347Z,10.80
2022-12-14T09:31:34.539Z,10.80
2022-12-14T09:34:04.028Z,10.00
2022-12-14T09:36:32.335Z,17.20
2022-12-14T09:39:00.637Z,20.90
2022-12-14T09:41:34.951Z,21.50
2022-12-14T09:44:25.097Z,18.60
2022-12-14T09:47:15.364Z,13.20
2022-12-14T09:49:51.746Z,11.50
2022-12-14T09:52:40.536Z,15.90
2022-12-14T09:55:20.584Z,16.10
2022-12-14T09:58:21.044Z,13.00
2022-12-14T10:01:25.818Z,11.40
2022-12-14T10:04:16.674Z,12.50
2022-12-14T10:07:01.054Z,13.70
2022-12-14T10:10:02.419Z,14.50
2022-12-14T10:12:52.163Z,13.30
2022-12-14T10:15:46.755Z,11.90
2022-12-14T10:21:24.978Z,11.90
2022-12-14T10:24:02.043Z,12.10
2022-12-14T10:26:42.344Z,12.60
2022-12-14T10:29:19.737Z,13.10
2022-12-14T10:32:00.426Z,12.50
2022-12-14T10:34:34.869Z,12.50
2022-12-14T10:37:25.813Z,13.30
2022-12-14T10:40:10.835Z,13.80
2022-12-14T10:43:24.026Z,13.00
2022-12-14T10:48:34.370Z,14.50
2022-12-14T10:51:25.524Z,12.00
2022-12-14T10:53:59.475Z,13.20
2022-12-14T10:56:33.981Z,15.20
2022-12-14T10:59:42.330Z,12.70
2022-12-14T11:02:27.685Z,13.60
2022-12-14T11:04:59.645Z,14.50
2022-12-14T11:07:30.845Z,14.90
2022-12-14T11:10:15.618Z,13.10
2022-12-14T11:13:02.077Z,14.20
2022-12-14T11:15:38.590Z,13.00
2022-12-14T11:18:16.108Z,12.40
2022-12-14T11:20:59.511Z,10.40
2022-12-14T11:23:37.440Z,12.60
2022-12-14T11:26:28.881Z,12.20
2022-12-14T11:28:58.946Z,12.60
2022-12-14T11:31:45.182Z,12.90
2022-12-14T11:34:35.039Z,11.80
2022-12-14T11:37:23.294Z,11.90
2022-12-14T11:39:55.173Z,11.90
2022-12-14T11:42:24.413Z,11.80
2022-12-14T11:44:53.167Z,14.30
2022-12-14T11:47:22.703Z,15.30
2022-12-14T11:49:54.586Z,12.70
2022-12-14T11:52:40.732Z,14.20
2022-12-14T11:55:26.151Z,26.30
2022-12-14T11:57:58.452Z,27.80
2022-12-14T12:00:31.024Z,19.10
2022-12-14T12:03:02.651Z,18.10
2022-12-14T12:05:33.634Z,15.60
2022-12-14T12:08:03.012Z,15.80
2022-12-14T12:10:50.688Z,17.10
2022-12-14T12:13:45.164Z,18.10
2022-12-14T12:16:23.073Z,19.40
2022-12-14T12:19:11.619Z,19.20
2022-12-14T12:21:43.425Z,19.30
2022-12-14T12:24:22.595Z,19.70
2022-12-14T12:26:59.067Z,22.70
2022-12-14T12:29:50.464Z,24.80
2022-12-14T12:32:33.341Z,26.00
2022-12-14T12:35:16.071Z,22.50
2022-12-14T12:37:46.518Z,17.80
2022-12-14T12:40:25.660Z,18.90
2022-12-14T12:43:19.155Z,18.90
2022-12-14T12:46:05.710Z,18.50
2022-12-14T12:48:43.620Z,17.80
2022-12-14T12:51:19.027Z,17.60
2022-12-14T12:53:59.221Z,15.60
2022-12-14T12:56:49.762Z,15.40
2022-12-14T12:59:34.182Z,20.30
2022-12-14T13:02:27.305Z,25.70
2022-12-14T13:05:06.992Z,27.90
2022-12-14T13:07:52.229Z,27.90
2022-12-14T13:10:34.655Z,27.30
2022-12-14T13:13:08.891Z,26.00
2022-12-14T13:15:51.291Z,26.90
2022-12-14T13:18:59.589Z,24.00
2022-12-14T13:21:44.790Z,21.00
2022-12-14T13:24:22.333Z,18.80
2022-12-14T13:27:05.188Z,19.00
2022-12-14T13:30:00.697Z,17.90
2022-12-14T13:33:08.172Z,18.00
2022-12-14T13:36:28.498Z,20.90
2022-12-14T13:39:27.533Z,19.90
2022-12-14T13:42:06.517Z,30.50
2022-12-14T13:44:52.835Z,41.90
2022-12-14T13:47:25.745Z,49.70
2022-12-14T13:50:34.203Z,49.70
2022-12-14T13:52:49.168Z,43.50
2022-12-14T13:55:30.763Z,40.30
2022-12-14T13:58:24.931Z,36.00
2022-12-14T14:01:16.794Z,37.00
2022-12-14T14:03:48.845Z,44.10
2022-12-14T14:06:19.489Z,43.50
2022-12-14T14:08:50.842Z,46.30
2022-12-14T14:14:29.292Z,57.80
2022-12-14T14:17:02.839Z,59.60
2022-12-14T14:19:39.737Z,62.80
2022-12-14T14:22:25.270Z,59.80
2022-12-14T14:24:58.920Z,79.90
2022-12-14T14:27:30.058Z,73.70
2022-12-14T14:29:59.480Z,54.70
2022-12-14T14:32:31.245Z,39.70
2022-12-14T14:35:01.838Z,37.00
2022-12-14T14:37:38.878Z,45.60
2022-12-14T14:40:22.056Z,42.10
2022-12-14T14:42:57.885Z,38.60
2022-12-14T14:45:56.544Z,33.60
2022-12-14T14:48:33.822Z,30.70
2022-12-14T14:51:35.383Z,35.30
2022-12-14T14:55:03.547Z,42.60
2022-12-14T14:57:54.929Z,45.30
2022-12-14T15:00:23.678Z,46.00
2022-12-14T15:02:54.540Z,48.00
2022-12-14T15:05:44.749Z,41.70
2022-12-14T15:10:50.772Z,33.60
2022-12-14T15:13:26.285Z,40.30
2022-12-14T15:15:56.867Z,74.60
2022-12-14T15:18:31.035Z,108.00
2022-12-14T15:21:12.361Z,102.60
2022-12-14T15:23:49.546Z,134.90
2022-12-14T15:26:25.715Z,103.40
2022-12-14T15:28:58.305Z,70.00
2022-12-14T15:31:35.891Z,41.30
2022-12-14T15:34:05.306Z,35.30
2022-12-14T15:36:42.971Z,31.50
2022-12-14T15:39:28.653Z,28.80
2022-12-14T15:42:15.262Z,32.80
2022-12-14T15:44:51.942Z,40.60
2022-12-14T15:47:29.344Z,53.50
2022-12-14T15:50:18.041Z,58.30
2022-12-14T15:52:47.604Z,60.50
2022-12-14T15:55:33.363Z,58.90
2022-12-14T15:58:15.852Z,56.80
2022-12-14T16:00:47.571Z,50.00
2022-12-14T16:03:30.772Z,44.50
2022-12-14T16:06:01.896Z,42.60
2022-12-14T16:08:32.585Z,39.20
2022-12-14T16:11:11.168Z,37.20
2022-12-14T16:13:43.692Z,34.70
2022-12-14T16:16:13.882Z,33.30
2022-12-14T16:21:31.299Z,34.70
2022-12-14T16:24:00.747Z,37.60
2022-12-14T16:26:38.837Z,37.00
2022-12-14T16:29:19.518Z,37.40
2022-12-14T16:31:48.109Z,39.10
2022-12-14T16:34:23.663Z,38.40
2022-12-14T16:37:31.184Z,33.80
2022-12-14T16:39:52.655Z,31.30
2022-12-14T16:42:26.836Z,31.00
2022-12-14T16:44:55.270Z,34.80
2022-12-14T16:47:33.818Z,37.10
2022-12-14T16:50:02.178Z,51.80
2022-12-14T16:52:34.993Z,66.00
2022-12-14T16:55:05.872Z,66.30
2022-12-14T16:57:34.520Z,57.90
2022-12-14T17:00:06.759Z,57.40
2022-12-14T17:02:38.171Z,40.90
2022-12-14T17:05:19.177Z,30.10
2022-12-14T17:07:48.115Z,39.40
2022-12-14T17:10:21.684Z,43.40
2022-12-14T17:12:50.540Z,43.10
2022-12-14T17:15:22.686Z,38.20
2022-12-14T17:17:53.654Z,58.40
2022-12-14T17:20:27.814Z,56.60
2022-12-14T17:22:58.965Z,38.20
2022-12-14T17:25:28.372Z,32.60
2022-12-14T17:27:56.715Z,42.90
2022-12-14T17:30:25.060Z,39.30
2022-12-14T17:32:54.632Z,37.50
2022-12-14T17:35:26.344Z,31.80
2022-12-14T17:37:54.554Z,29.80
2022-12-14T17:40:23.150Z,30.90
2022-12-14T17:42:58.217Z,52.30
2022-12-14T17:45:30.509Z,71.00
2022-12-14T17:47:58.649Z,85.10
2022-12-14T17:50:26.889Z,86.60
2022-12-14T17:52:55.143Z,59.80
2022-12-14T17:55:29.932Z,85.60
2022-12-14T17:57:59.735Z,94.30
2022-12-14T18:00:50.461Z,96.10
2022-12-14T18:03:19.785Z,76.50
2022-12-14T18:05:49.623Z,62.00
2022-12-14T18:08:22.420Z,47.10
2022-12-14T18:11:04.111Z,45.30
2022-12-14T18:13:35.146Z,59.30
2022-12-14T18:16:03.735Z,64.90
2022-12-14T18:18:31.994Z,59.70
2022-12-14T18:21:02.910Z,60.90
2022-12-14T18:23:32.327Z,59.40
2022-12-14T18:26:04.698Z,68.00
2022-12-14T18:28:33.047Z,76.70
2022-12-14T18:31:07.550Z,80.90
2022-12-14T18:33:36.126Z,73.90
2022-12-14T18:36:04.553Z,69.70
2022-12-14T18:38:32.919Z,57.00
2022-12-14T18:41:01.921Z,45.20
2022-12-14T18:43:33.672Z,41.30
2022-12-14T18:46:03.380Z,46.30
2022-12-14T18:48:31.648Z,65.90
2022-12-14T18:51:01.942Z,80.50
2022-12-14T18:53:30.765Z,90.40
2022-12-14T18:55:59.634Z,72.10
2022-12-14T18:58:29.330Z,53.50
2022-12-14T19:00:59.941Z,34.90
2022-12-14T19:03:32.544Z,36.40
2022-12-14T19:06:43.995Z,46.80
2022-12-14T19:09:14.424Z,60.70
2022-12-14T19:11:42.749Z,61.30
2022-12-14T19:14:11.683Z,57.60
2022-12-14T19:16:40.211Z,55.00
2022-12-14T19:19:10.517Z,46.20
2022-12-14T19:21:38.758Z,46.80
2022-12-14T19:24:09.084Z,41.00
2022-12-14T19:26:39.136Z,34.60
2022-12-14T19:31:35.819Z,28.00
2022-12-14T19:34:03.974Z,30.30
2022-12-14T19:36:32.196Z,49.40
2022-12-14T19:39:00.387Z,60.50
2022-12-14T19:43:58.102Z,65.80
2022-12-14T19:48:55.828Z,50.90
2022-12-14T19:51:24.054Z,47.30
2022-12-14T19:53:54.443Z,34.90
2022-12-14T19:56:23.406Z,26.70
2022-12-14T19:58:52.333Z,27.80
2022-12-14T20:01:20.632Z,27.20
2022-12-14T20:03:49.651Z,34.50
2022-12-14T20:06:17.888Z,45.20
2022-12-14T20:08:49.595Z,28.90
2022-12-14T20:11:18.357Z,32.10
2022-12-14T20:13:48.500Z,42.10
2022-12-14T20:16:20.850Z,44.50
2022-12-14T20:18:49.470Z,39.50
2022-12-14T20:21:22.176Z,36.90
2022-12-14T20:23:51.008Z,36.90
2022-12-14T20:26:21.864Z,33.60
2022-12-14T20:28:52.730Z,36.50
2022-12-14T20:31:22.804Z,38.90
2022-12-14T20:36:19.392Z,40.50
2022-12-14T20:38:49.206Z,42.00
2022-12-14T20:43:54.897Z,38.40
2022-12-14T20:46:35.222Z,39.60
2022-12-14T20:49:14.075Z,53.50
2022-12-14T20:51:44.042Z,73.20
2022-12-14T20:56:43.306Z,53.90
2022-12-14T20:59:12.168Z,39.50
2022-12-14T21:01:41.965Z,36.30
2022-12-14T21:04:10.594Z,34.50
2022-12-14T21:06:41.775Z,34.00
2022-12-14T21:09:12.116Z,41.70
2022-12-14T21:12:07.122Z,42.40
2022-12-14T21:14:38.324Z,39.60
2022-12-14T21:17:06.937Z,40.90
2022-12-14T21:19:36.397Z,38.40
2022-12-14T21:22:07.287Z,40.10
2022-12-14T21:25:01.721Z,38.60
2022-12-14T21:27:27.542Z,33.50
2022-12-14T21:29:55.846Z,31.40
2022-12-14T21:32:24.253Z,28.00
2022-12-14T21:34:52.929Z,27.60
2022-12-14T21:37:21.252Z,30.90
2022-12-14T21:39:54.447Z,30.40
2022-12-14T21:42:24.984Z,30.00
2022-12-14T21:44:54.400Z,30.50
2022-12-14T21:47:28.635Z,29.50
2022-12-14T21:49:57.540Z,31.00
2022-12-14T21:52:28.057Z,16.60
2022-12-14T21:54:58.830Z,27.20
2022-12-14T21:57:49.524Z,26.80
2022-12-14T22:00:20.374Z,25.70
2022-12-14T22:02:48.639Z,26.00
2022-12-14T22:05:18.501Z,25.20
2022-12-14T22:07:46.979Z,25.90
2022-12-14T22:10:18.684Z,25.30
2022-12-14T22:12:49.776Z,23.40
2022-12-14T22:15:18.116Z,22.80
2022-12-14T22:17:46.383Z,24.80
2022-12-14T22:20:14.746Z,24.30
2022-12-14T22:22:42.951Z,23.10
2022-12-14T22:25:11.614Z,22.40
2022-12-14T22:27:39.764Z,24.20
2022-12-14T22:30:09.454Z,21.50
2022-12-14T22:32:38.196Z,20.10
2022-12-14T22:35:06.769Z,20.40
2022-12-14T22:37:35.822Z,19.00
2022-12-14T22:40:04.357Z,20.00
2022-12-14T22:42:34.738Z,20.20
2022-12-14T22:45:06.156Z,20.50
2022-12-14T22:47:34.844Z,18.50
2022-12-14T22:50:03.232Z,17.20
2022-12-14T22:52:31.952Z,18.10
2022-12-14T22:55:03.749Z,19.90
2022-12-14T22:57:34.271Z,21.10
2022-12-14T23:00:11.491Z,20.00
2022-12-14T23:02:43.107Z,19.60
2022-12-14T23:05:15.740Z,19.50
2022-12-14T23:07:43.809Z,19.80
2022-12-14T23:10:30.794Z,18.60
2022-12-14T23:13:17.712Z,18.30
2022-12-14T23:16:04.367Z,19.10
2022-12-14T23:18:51.309Z,20.10
2022-12-14T23:21:38.633Z,18.40
2022-12-14T23:24:26.019Z,19.10
2022-12-14T23:27:12.960Z,19.50
2022-12-14T23:29:59.777Z,18.90
2022-12-14T23:32:46.951Z,19.90
2022-12-14T23:35:33.731Z,20.40
2022-12-14T23:38:26.102Z,25.30
2022-12-14T23:41:20.001Z,27.10
2022-12-14T23:44:06.771Z,25.60
2022-12-14T23:46:54.498Z,20.90
2022-12-14T23:49:41.285Z,20.50
2022-12-14T23:52:28.281Z,22.00
2022-12-14T23:55:15.242Z,22.70
2022-12-14T23:58:02.114Z,22.30
